sensor_id;sensor_type;location;lat;lon;timestamp;temperature;humidity
11639;DHT22;5875;35.940;126.892;2022-07-25T00:01:14;29.70;99.90
11639;DHT22;5875;35.940;126.892;2022-07-25T00:03:41;30.10;99.90
11639;DHT22;5875;35.940;126.892;2022-07-25T00:06:08;30.30;99.90
11639;DHT22;5875;35.940;126.892;2022-07-25T00:08:35;30.30;99.90
11639;DHT22;5875;35.940;126.892;2022-07-25T00:11:03;30.40;99.90
11639;DHT22;5875;35.940;126.892;2022-07-25T00:13:31;30.30;99.90
11639;DHT22;5875;35.940;126.892;2022-07-25T00:15:58;30.30;99.90
11639;DHT22;5875;35.940;126.892;2022-07-25T00:18:25;30.20;99.90
11639;DHT22;5875;35.940;126.892;2022-07-25T00:20:52;30.20;99.90
11639;DHT22;5875;35.940;126.892;2022-07-25T00:23:19;30.30;99.90
11639;DHT22;5875;35.940;126.892;2022-07-25T00:25:46;30.20;99.90
11639;DHT22;5875;35.940;126.892;2022-07-25T00:28:13;30.40;99.90
11639;DHT22;5875;35.940;126.892;2022-07-25T00:30:40;30.40;99.90
11639;DHT22;5875;35.940;126.892;2022-07-25T00:33:07;30.80;99.90
11639;DHT22;5875;35.940;126.892;2022-07-25T00:35:35;31.20;99.90
11639;DHT22;5875;35.940;126.892;2022-07-25T00:38:02;31.40;99.90
11639;DHT22;5875;35.940;126.892;2022-07-25T00:40:29;31.40;99.90
11639;DHT22;5875;35.940;126.892;2022-07-25T00:42:56;31.30;99.90
11639;DHT22;5875;35.940;126.892;2022-07-25T00:45:23;31.10;99.90
11639;DHT22;5875;35.940;126.892;2022-07-25T00:47:50;31.00;99.90
11639;DHT22;5875;35.940;126.892;2022-07-25T00:50:17;30.80;99.90
11639;DHT22;5875;35.940;126.892;2022-07-25T00:52:45;30.70;99.90
11639;DHT22;5875;35.940;126.892;2022-07-25T00:55:13;30.70;99.90
11639;DHT22;5875;35.940;126.892;2022-07-25T00:57:40;30.80;99.90
11639;DHT22;5875;35.940;126.892;2022-07-25T01:00:11;31.20;99.90
11639;DHT22;5875;35.940;126.892;2022-07-25T01:02:40;31.60;99.90
11639;DHT22;5875;35.940;126.892;2022-07-25T01:05:08;32.20;99.90
11639;DHT22;5875;35.940;126.892;2022-07-25T01:07:36;32.70;99.90
11639;DHT22;5875;35.940;126.892;2022-07-25T01:10:05;32.90;99.90
11639;DHT22;5875;35.940;126.892;2022-07-25T01:12:42;33.10;99.90
11639;DHT22;5875;35.940;126.892;2022-07-25T01:15:10;33.40;99.90
11639;DHT22;5875;35.940;126.892;2022-07-25T01:17:37;33.40;99.90
11639;DHT22;5875;35.940;126.892;2022-07-25T01:20:04;33.10;99.90
11639;DHT22;5875;35.940;126.892;2022-07-25T01:22:32;32.90;99.90
11639;DHT22;5875;35.940;126.892;2022-07-25T01:24:59;32.70;99.90
11639;DHT22;5875;35.940;126.892;2022-07-25T01:27:26;33.10;99.90
11639;DHT22;5875;35.940;126.892;2022-07-25T01:29:53;33.40;99.90
11639;DHT22;5875;35.940;126.892;2022-07-25T01:32:20;33.70;99.90
11639;DHT22;5875;35.940;126.892;2022-07-25T01:34:47;34.10;99.90
11639;DHT22;5875;35.940;126.892;2022-07-25T01:37:14;34.40;99.90
11639;DHT22;5875;35.940;126.892;2022-07-25T01:39:41;34.60;99.90
11639;DHT22;5875;35.940;126.892;2022-07-25T01:42:08;34.10;99.90
11639;DHT22;5875;35.940;126.892;2022-07-25T01:44:35;34.10;99.90
11639;DHT22;5875;35.940;126.892;2022-07-25T01:47:03;34.40;99.90
11639;DHT22;5875;35.940;126.892;2022-07-25T01:49:30;34.70;99.90
11639;DHT22;5875;35.940;126.892;2022-07-25T01:51:57;35.00;99.90
11639;DHT22;5875;35.940;126.892;2022-07-25T01:54:24;35.20;99.90
11639;DHT22;5875;35.940;126.892;2022-07-25T01:56:51;35.50;99.90
11639;DHT22;5875;35.940;126.892;2022-07-25T01:59:18;35.70;99.90
11639;DHT22;5875;35.940;126.892;2022-07-25T02:01:45;34.70;99.90
11639;DHT22;5875;35.940;126.892;2022-07-25T02:04:12;35.10;99.90
11639;DHT22;5875;35.940;126.892;2022-07-25T02:06:39;35.50;99.90
11639;DHT22;5875;35.940;126.892;2022-07-25T02:09:10;35.80;99.90
11639;DHT22;5875;35.940;126.892;2022-07-25T02:11:37;36.00;99.90
11639;DHT22;5875;35.940;126.892;2022-07-25T02:14:04;36.50;99.90
11639;DHT22;5875;35.940;126.892;2022-07-25T02:16:31;36.90;99.90
11639;DHT22;5875;35.940;126.892;2022-07-25T02:18:58;37.10;99.90
11639;DHT22;5875;35.940;126.892;2022-07-25T02:21:25;37.20;99.90
11639;DHT22;5875;35.940;126.892;2022-07-25T02:23:52;37.20;99.90
11639;DHT22;5875;35.940;126.892;2022-07-25T02:26:19;37.40;99.90
11639;DHT22;5875;35.940;126.892;2022-07-25T02:28:48;37.60;99.90
11639;DHT22;5875;35.940;126.892;2022-07-25T02:31:15;37.80;99.90
11639;DHT22;5875;35.940;126.892;2022-07-25T02:33:42;37.90;99.90
11639;DHT22;5875;35.940;126.892;2022-07-25T02:36:10;37.70;99.90
11639;DHT22;5875;35.940;126.892;2022-07-25T02:38:38;36.90;99.90
11639;DHT22;5875;35.940;126.892;2022-07-25T02:41:05;36.30;99.90
11639;DHT22;5875;35.940;126.892;2022-07-25T02:43:32;36.60;99.90
11639;DHT22;5875;35.940;126.892;2022-07-25T02:45:59;36.90;99.90
11639;DHT22;5875;35.940;126.892;2022-07-25T02:48:26;37.50;99.90
11639;DHT22;5875;35.940;126.892;2022-07-25T02:50:54;37.70;99.90
11639;DHT22;5875;35.940;126.892;2022-07-25T02:53:21;37.90;99.90
11639;DHT22;5875;35.940;126.892;2022-07-25T02:55:48;37.90;99.90
11639;DHT22;5875;35.940;126.892;2022-07-25T02:58:15;38.00;99.90
11639;DHT22;5875;35.940;126.892;2022-07-25T03:00:42;38.00;99.90
11639;DHT22;5875;35.940;126.892;2022-07-25T03:03:09;38.00;99.90
11639;DHT22;5875;35.940;126.892;2022-07-25T03:05:36;37.90;99.90
11639;DHT22;5875;35.940;126.892;2022-07-25T03:08:03;37.80;99.90
11639;DHT22;5875;35.940;126.892;2022-07-25T03:10:31;37.90;99.90
11639;DHT22;5875;35.940;126.892;2022-07-25T03:12:59;38.10;99.90
11639;DHT22;5875;35.940;126.892;2022-07-25T03:15:26;38.20;99.90
11639;DHT22;5875;35.940;126.892;2022-07-25T03:17:53;38.40;99.90
11639;DHT22;5875;35.940;126.892;2022-07-25T03:20:20;38.60;99.90
11639;DHT22;5875;35.940;126.892;2022-07-25T03:22:48;38.30;99.90
11639;DHT22;5875;35.940;126.892;2022-07-25T03:25:15;38.10;99.90
11639;DHT22;5875;35.940;126.892;2022-07-25T03:27:42;37.70;99.90
11639;DHT22;5875;35.940;126.892;2022-07-25T03:30:09;37.50;99.90
11639;DHT22;5875;35.940;126.892;2022-07-25T03:32:37;36.90;99.90
11639;DHT22;5875;35.940;126.892;2022-07-25T03:35:05;36.80;99.90
11639;DHT22;5875;35.940;126.892;2022-07-25T03:37:33;37.40;99.90
11639;DHT22;5875;35.940;126.892;2022-07-25T03:40:00;37.70;99.90
11639;DHT22;5875;35.940;126.892;2022-07-25T03:42:27;37.80;99.90
11639;DHT22;5875;35.940;126.892;2022-07-25T03:44:54;38.00;99.90
11639;DHT22;5875;35.940;126.892;2022-07-25T03:47:21;38.10;99.90
11639;DHT22;5875;35.940;126.892;2022-07-25T03:49:48;38.30;99.90
11639;DHT22;5875;35.940;126.892;2022-07-25T03:52:15;38.20;99.90
11639;DHT22;5875;35.940;126.892;2022-07-25T03:54:42;38.30;99.90
11639;DHT22;5875;35.940;126.892;2022-07-25T03:57:09;38.50;99.90
11639;DHT22;5875;35.940;126.892;2022-07-25T03:59:37;38.40;99.90
11639;DHT22;5875;35.940;126.892;2022-07-25T04:02:04;38.40;99.90
11639;DHT22;5875;35.940;126.892;2022-07-25T04:04:31;38.70;99.90
11639;DHT22;5875;35.940;126.892;2022-07-25T04:06:59;38.60;99.90
11639;DHT22;5875;35.940;126.892;2022-07-25T04:09:26;38.70;99.90
11639;DHT22;5875;35.940;126.892;2022-07-25T04:11:53;38.50;99.90
11639;DHT22;5875;35.940;126.892;2022-07-25T04:14:20;37.60;99.90
11639;DHT22;5875;35.940;126.892;2022-07-25T04:16:47;37.50;99.90
11639;DHT22;5875;35.940;126.892;2022-07-25T04:19:14;37.70;99.90
11639;DHT22;5875;35.940;126.892;2022-07-25T04:21:41;37.70;99.90
11639;DHT22;5875;35.940;126.892;2022-07-25T04:24:08;37.50;99.90
11639;DHT22;5875;35.940;126.892;2022-07-25T04:26:35;36.90;99.90
11639;DHT22;5875;35.940;126.892;2022-07-25T04:29:03;37.00;99.90
11639;DHT22;5875;35.940;126.892;2022-07-25T04:31:30;37.40;99.90
11639;DHT22;5875;35.940;126.892;2022-07-25T04:33:57;37.70;99.90
11639;DHT22;5875;35.940;126.892;2022-07-25T04:36:24;37.90;99.90
11639;DHT22;5875;35.940;126.892;2022-07-25T04:38:52;37.90;99.90
11639;DHT22;5875;35.940;126.892;2022-07-25T04:41:19;37.90;99.90
11639;DHT22;5875;35.940;126.892;2022-07-25T04:43:46;38.10;99.90
11639;DHT22;5875;35.940;126.892;2022-07-25T04:46:20;38.30;99.90
11639;DHT22;5875;35.940;126.892;2022-07-25T04:48:48;37.90;99.90
11639;DHT22;5875;35.940;126.892;2022-07-25T04:51:16;38.00;99.90
11639;DHT22;5875;35.940;126.892;2022-07-25T04:53:44;38.00;99.90
11639;DHT22;5875;35.940;126.892;2022-07-25T04:56:12;38.00;99.90
11639;DHT22;5875;35.940;126.892;2022-07-25T04:58:39;38.00;99.90
11639;DHT22;5875;35.940;126.892;2022-07-25T05:01:06;38.00;99.90
11639;DHT22;5875;35.940;126.892;2022-07-25T05:03:33;38.00;99.90
11639;DHT22;5875;35.940;126.892;2022-07-25T05:06:00;37.90;99.90
11639;DHT22;5875;35.940;126.892;2022-07-25T05:08:28;37.60;99.90
11639;DHT22;5875;35.940;126.892;2022-07-25T05:10:56;37.40;99.90
11639;DHT22;5875;35.940;126.892;2022-07-25T05:13:23;37.40;99.90
11639;DHT22;5875;35.940;126.892;2022-07-25T05:15:50;37.40;99.90
11639;DHT22;5875;35.940;126.892;2022-07-25T05:18:17;37.30;99.90
11639;DHT22;5875;35.940;126.892;2022-07-25T05:20:44;37.00;99.90
11639;DHT22;5875;35.940;126.892;2022-07-25T05:23:11;37.10;99.90
11639;DHT22;5875;35.940;126.892;2022-07-25T05:25:38;37.10;99.90
11639;DHT22;5875;35.940;126.892;2022-07-25T05:28:05;37.20;99.90
11639;DHT22;5875;35.940;126.892;2022-07-25T05:30:33;37.30;99.90
11639;DHT22;5875;35.940;126.892;2022-07-25T05:33:00;37.10;99.90
11639;DHT22;5875;35.940;126.892;2022-07-25T05:35:27;37.20;99.90
11639;DHT22;5875;35.940;126.892;2022-07-25T05:37:54;37.10;99.90
11639;DHT22;5875;35.940;126.892;2022-07-25T05:40:21;37.00;99.90
11639;DHT22;5875;35.940;126.892;2022-07-25T05:42:49;37.00;99.90
11639;DHT22;5875;35.940;126.892;2022-07-25T05:45:16;37.00;99.90
11639;DHT22;5875;35.940;126.892;2022-07-25T05:47:43;36.90;99.90
11639;DHT22;5875;35.940;126.892;2022-07-25T05:50:10;36.80;99.90
11639;DHT22;5875;35.940;126.892;2022-07-25T05:52:38;36.70;99.90
11639;DHT22;5875;35.940;126.892;2022-07-25T05:55:05;36.70;99.90
11639;DHT22;5875;35.940;126.892;2022-07-25T05:57:34;36.60;99.90
11639;DHT22;5875;35.940;126.892;2022-07-25T06:00:04;36.60;99.90
11639;DHT22;5875;35.940;126.892;2022-07-25T06:02:31;36.60;99.90
11639;DHT22;5875;35.940;126.892;2022-07-25T06:04:59;36.50;99.90
11639;DHT22;5875;35.940;126.892;2022-07-25T06:07:26;36.40;99.90
11639;DHT22;5875;35.940;126.892;2022-07-25T06:09:53;36.40;99.90
11639;DHT22;5875;35.940;126.892;2022-07-25T06:12:20;36.30;99.90
11639;DHT22;5875;35.940;126.892;2022-07-25T06:14:47;36.30;99.90
11639;DHT22;5875;35.940;126.892;2022-07-25T06:17:14;36.20;99.90
11639;DHT22;5875;35.940;126.892;2022-07-25T06:19:41;36.30;99.90
11639;DHT22;5875;35.940;126.892;2022-07-25T06:22:08;36.30;99.90
11639;DHT22;5875;35.940;126.892;2022-07-25T06:24:36;36.20;99.90
11639;DHT22;5875;35.940;126.892;2022-07-25T06:27:05;36.20;99.90
11639;DHT22;5875;35.940;126.892;2022-07-25T06:29:32;36.20;99.90
11639;DHT22;5875;35.940;126.892;2022-07-25T06:31:59;36.10;99.90
11639;DHT22;5875;35.940;126.892;2022-07-25T06:34:26;36.10;99.90
11639;DHT22;5875;35.940;126.892;2022-07-25T06:36:53;36.10;99.90
11639;DHT22;5875;35.940;126.892;2022-07-25T06:39:23;36.10;99.90
11639;DHT22;5875;35.940;126.892;2022-07-25T06:41:51;35.90;99.90
11639;DHT22;5875;35.940;126.892;2022-07-25T06:44:18;35.70;99.90
11639;DHT22;5875;35.940;126.892;2022-07-25T06:46:45;35.60;99.90
11639;DHT22;5875;35.940;126.892;2022-07-25T06:49:12;35.60;99.90
11639;DHT22;5875;35.940;126.892;2022-07-25T06:51:40;35.50;99.90
11639;DHT22;5875;35.940;126.892;2022-07-25T06:54:07;35.40;99.90
11639;DHT22;5875;35.940;126.892;2022-07-25T06:56:34;35.30;99.90
11639;DHT22;5875;35.940;126.892;2022-07-25T06:59:01;35.30;99.90
11639;DHT22;5875;35.940;126.892;2022-07-25T07:01:28;35.10;99.90
11639;DHT22;5875;35.940;126.892;2022-07-25T07:03:55;34.90;99.90
11639;DHT22;5875;35.940;126.892;2022-07-25T07:06:22;34.70;99.90
11639;DHT22;5875;35.940;126.892;2022-07-25T07:08:49;34.50;99.90
11639;DHT22;5875;35.940;126.892;2022-07-25T07:11:16;34.40;99.90
11639;DHT22;5875;35.940;126.892;2022-07-25T07:13:44;34.30;99.90
11639;DHT22;5875;35.940;126.892;2022-07-25T07:16:11;34.00;99.90
11639;DHT22;5875;35.940;126.892;2022-07-25T07:18:38;33.80;99.90
11639;DHT22;5875;35.940;126.892;2022-07-25T07:21:05;33.60;99.90
11639;DHT22;5875;35.940;126.892;2022-07-25T07:23:32;33.40;99.90
11639;DHT22;5875;35.940;126.892;2022-07-25T07:26:00;33.20;99.90
11639;DHT22;5875;35.940;126.892;2022-07-25T07:28:27;33.00;99.90
11639;DHT22;5875;35.940;126.892;2022-07-25T07:30:54;33.00;99.90
11639;DHT22;5875;35.940;126.892;2022-07-25T07:33:21;32.80;99.90
11639;DHT22;5875;35.940;126.892;2022-07-25T07:35:48;32.60;99.90
11639;DHT22;5875;35.940;126.892;2022-07-25T07:38:15;32.50;99.90
11639;DHT22;5875;35.940;126.892;2022-07-25T07:40:43;32.50;99.90
11639;DHT22;5875;35.940;126.892;2022-07-25T07:43:10;32.40;99.90
11639;DHT22;5875;35.940;126.892;2022-07-25T07:45:37;32.30;99.90
11639;DHT22;5875;35.940;126.892;2022-07-25T07:48:05;32.20;99.90
11639;DHT22;5875;35.940;126.892;2022-07-25T07:50:33;32.10;99.90
11639;DHT22;5875;35.940;126.892;2022-07-25T07:53:01;32.00;99.90
11639;DHT22;5875;35.940;126.892;2022-07-25T07:55:28;31.90;99.90
11639;DHT22;5875;35.940;126.892;2022-07-25T07:58:12;31.80;99.90
11639;DHT22;5875;35.940;126.892;2022-07-25T08:00:42;31.80;99.90
11639;DHT22;5875;35.940;126.892;2022-07-25T08:03:09;31.80;99.90
11639;DHT22;5875;35.940;126.892;2022-07-25T08:05:42;31.70;99.90
11639;DHT22;5875;35.940;126.892;2022-07-25T08:08:12;31.60;99.90
11639;DHT22;5875;35.940;126.892;2022-07-25T08:10:43;31.60;99.90
11639;DHT22;5875;35.940;126.892;2022-07-25T08:13:21;31.50;99.90
11639;DHT22;5875;35.940;126.892;2022-07-25T08:15:54;31.50;99.90
11639;DHT22;5875;35.940;126.892;2022-07-25T08:18:24;31.50;99.90
11639;DHT22;5875;35.940;126.892;2022-07-25T08:20:51;31.40;99.90
11639;DHT22;5875;35.940;126.892;2022-07-25T08:23:19;31.40;99.90
11639;DHT22;5875;35.940;126.892;2022-07-25T08:25:46;31.30;99.90
11639;DHT22;5875;35.940;126.892;2022-07-25T08:28:13;31.30;99.90
11639;DHT22;5875;35.940;126.892;2022-07-25T08:30:41;31.30;99.90
11639;DHT22;5875;35.940;126.892;2022-07-25T08:33:11;31.20;99.90
11639;DHT22;5875;35.940;126.892;2022-07-25T08:35:49;31.20;99.90
11639;DHT22;5875;35.940;126.892;2022-07-25T08:38:21;31.20;99.90
11639;DHT22;5875;35.940;126.892;2022-07-25T08:40:49;31.20;99.90
11639;DHT22;5875;35.940;126.892;2022-07-25T08:43:17;31.10;99.90
11639;DHT22;5875;35.940;126.892;2022-07-25T08:45:49;31.10;99.90
11639;DHT22;5875;35.940;126.892;2022-07-25T08:48:19;31.10;99.90
11639;DHT22;5875;35.940;126.892;2022-07-25T08:50:47;31.10;99.90
11639;DHT22;5875;35.940;126.892;2022-07-25T08:53:16;31.10;99.90
11639;DHT22;5875;35.940;126.892;2022-07-25T08:55:45;31.00;99.90
11639;DHT22;5875;35.940;126.892;2022-07-25T08:58:13;31.00;99.90
11639;DHT22;5875;35.940;126.892;2022-07-25T09:00:41;30.90;99.90
11639;DHT22;5875;35.940;126.892;2022-07-25T09:03:09;30.90;99.90
11639;DHT22;5875;35.940;126.892;2022-07-25T09:05:37;30.80;99.90
11639;DHT22;5875;35.940;126.892;2022-07-25T09:08:16;30.80;99.90
11639;DHT22;5875;35.940;126.892;2022-07-25T09:10:50;30.80;99.90
11639;DHT22;5875;35.940;126.892;2022-07-25T09:13:19;30.70;99.90
11639;DHT22;5875;35.940;126.892;2022-07-25T09:15:49;30.80;99.90
11639;DHT22;5875;35.940;126.892;2022-07-25T09:18:22;30.70;99.90
11639;DHT22;5875;35.940;126.892;2022-07-25T09:20:51;30.70;99.90
11639;DHT22;5875;35.940;126.892;2022-07-25T09:23:34;30.70;99.90
11639;DHT22;5875;35.940;126.892;2022-07-25T09:26:07;30.60;99.90
11639;DHT22;5875;35.940;126.892;2022-07-25T09:28:44;30.50;99.90
11639;DHT22;5875;35.940;126.892;2022-07-25T09:31:12;30.50;99.90
11639;DHT22;5875;35.940;126.892;2022-07-25T09:33:50;30.40;99.90
11639;DHT22;5875;35.940;126.892;2022-07-25T09:36:19;30.30;99.90
11639;DHT22;5875;35.940;126.892;2022-07-25T09:38:57;30.30;99.90
11639;DHT22;5875;35.940;126.892;2022-07-25T09:41:40;30.20;99.90
11639;DHT22;5875;35.940;126.892;2022-07-25T09:44:20;30.20;99.90
11639;DHT22;5875;35.940;126.892;2022-07-25T09:46:56;30.10;99.90
11639;DHT22;5875;35.940;126.892;2022-07-25T09:49:43;30.10;99.90
11639;DHT22;5875;35.940;126.892;2022-07-25T09:52:12;30.00;99.90
11639;DHT22;5875;35.940;126.892;2022-07-25T09:54:40;30.00;99.90
11639;DHT22;5875;35.940;126.892;2022-07-25T09:57:07;29.90;99.90
11639;DHT22;5875;35.940;126.892;2022-07-25T09:59:34;29.90;99.90
11639;DHT22;5875;35.940;126.892;2022-07-25T10:02:10;29.80;99.90
11639;DHT22;5875;35.940;126.892;2022-07-25T10:07:36;29.70;99.90
11639;DHT22;5875;35.940;126.892;2022-07-25T10:10:05;29.60;99.90
11639;DHT22;5875;35.940;126.892;2022-07-25T10:12:32;29.60;99.90
11639;DHT22;5875;35.940;126.892;2022-07-25T10:15:11;29.50;99.90
11639;DHT22;5875;35.940;126.892;2022-07-25T10:17:40;29.50;99.90
11639;DHT22;5875;35.940;126.892;2022-07-25T10:20:09;29.40;99.90
11639;DHT22;5875;35.940;126.892;2022-07-25T10:22:41;29.30;99.90
11639;DHT22;5875;35.940;126.892;2022-07-25T10:25:17;29.30;99.90
11639;DHT22;5875;35.940;126.892;2022-07-25T10:27:47;29.20;99.90
11639;DHT22;5875;35.940;126.892;2022-07-25T10:30:21;29.20;99.90
11639;DHT22;5875;35.940;126.892;2022-07-25T10:33:00;29.10;99.90
11639;DHT22;5875;35.940;126.892;2022-07-25T10:35:29;29.10;99.90
11639;DHT22;5875;35.940;126.892;2022-07-25T10:37:58;29.00;99.90
11639;DHT22;5875;35.940;126.892;2022-07-25T10:40:27;29.00;99.90
11639;DHT22;5875;35.940;126.892;2022-07-25T10:43:05;29.00;99.90
11639;DHT22;5875;35.940;126.892;2022-07-25T10:45:42;29.00;99.90
11639;DHT22;5875;35.940;126.892;2022-07-25T10:48:24;28.90;99.90
11639;DHT22;5875;35.940;126.892;2022-07-25T10:51:03;28.80;99.90
11639;DHT22;5875;35.940;126.892;2022-07-25T10:53:46;28.70;99.90
11639;DHT22;5875;35.940;126.892;2022-07-25T10:56:22;28.70;99.90
11639;DHT22;5875;35.940;126.892;2022-07-25T10:58:55;28.60;99.90
11639;DHT22;5875;35.940;126.892;2022-07-25T11:01:33;28.60;99.90
11639;DHT22;5875;35.940;126.892;2022-07-25T11:04:14;28.60;99.90
11639;DHT22;5875;35.940;126.892;2022-07-25T11:06:42;28.50;99.90
11639;DHT22;5875;35.940;126.892;2022-07-25T11:09:18;28.50;99.90
11639;DHT22;5875;35.940;126.892;2022-07-25T11:11:49;28.40;99.90
11639;DHT22;5875;35.940;126.892;2022-07-25T11:17:10;28.40;99.90
11639;DHT22;5875;35.940;126.892;2022-07-25T11:19:38;28.30;99.90
11639;DHT22;5875;35.940;126.892;2022-07-25T11:22:06;28.20;99.90
11639;DHT22;5875;35.940;126.892;2022-07-25T11:24:40;28.20;99.90
11639;DHT22;5875;35.940;126.892;2022-07-25T11:27:09;28.20;99.90
11639;DHT22;5875;35.940;126.892;2022-07-25T11:29:37;28.20;99.90
11639;DHT22;5875;35.940;126.892;2022-07-25T11:32:08;28.10;99.90
11639;DHT22;5875;35.940;126.892;2022-07-25T11:34:51;28.00;99.90
11639;DHT22;5875;35.940;126.892;2022-07-25T11:37:19;28.00;99.90
11639;DHT22;5875;35.940;126.892;2022-07-25T11:39:47;27.90;99.90
11639;DHT22;5875;35.940;126.892;2022-07-25T11:42:17;27.90;99.90
11639;DHT22;5875;35.940;126.892;2022-07-25T11:44:50;27.90;99.90
11639;DHT22;5875;35.940;126.892;2022-07-25T11:47:29;27.80;99.90
11639;DHT22;5875;35.940;126.892;2022-07-25T11:50:02;27.80;99.90
11639;DHT22;5875;35.940;126.892;2022-07-25T11:52:36;27.80;99.90
11639;DHT22;5875;35.940;126.892;2022-07-25T11:55:05;27.80;99.90
11639;DHT22;5875;35.940;126.892;2022-07-25T11:57:36;27.80;99.90
11639;DHT22;5875;35.940;126.892;2022-07-25T12:00:22;27.70;99.90
11639;DHT22;5875;35.940;126.892;2022-07-25T12:02:49;27.80;99.90
11639;DHT22;5875;35.940;126.892;2022-07-25T12:05:19;27.80;99.90
11639;DHT22;5875;35.940;126.892;2022-07-25T12:07:54;27.70;99.90
11639;DHT22;5875;35.940;126.892;2022-07-25T12:10:23;27.70;99.90
11639;DHT22;5875;35.940;126.892;2022-07-25T12:12:55;27.60;99.90
11639;DHT22;5875;35.940;126.892;2022-07-25T12:15:24;27.60;99.90
11639;DHT22;5875;35.940;126.892;2022-07-25T12:17:53;27.60;99.90
11639;DHT22;5875;35.940;126.892;2022-07-25T12:20:27;27.60;99.90
11639;DHT22;5875;35.940;126.892;2022-07-25T12:22:57;27.60;99.90
11639;DHT22;5875;35.940;126.892;2022-07-25T12:25:25;27.60;99.90
11639;DHT22;5875;35.940;126.892;2022-07-25T12:27:53;27.60;99.90
11639;DHT22;5875;35.940;126.892;2022-07-25T12:30:20;27.60;99.90
11639;DHT22;5875;35.940;126.892;2022-07-25T12:32:47;27.50;99.90
11639;DHT22;5875;35.940;126.892;2022-07-25T12:35:14;27.50;99.90
11639;DHT22;5875;35.940;126.892;2022-07-25T12:37:42;27.40;99.90
11639;DHT22;5875;35.940;126.892;2022-07-25T12:40:11;27.40;99.90
11639;DHT22;5875;35.940;126.892;2022-07-25T12:42:39;27.40;99.90
11639;DHT22;5875;35.940;126.892;2022-07-25T12:45:07;27.30;99.90
11639;DHT22;5875;35.940;126.892;2022-07-25T12:47:34;27.30;99.90
11639;DHT22;5875;35.940;126.892;2022-07-25T12:50:02;27.30;99.90
11639;DHT22;5875;35.940;126.892;2022-07-25T12:52:29;27.30;99.90
11639;DHT22;5875;35.940;126.892;2022-07-25T12:54:57;27.20;99.90
11639;DHT22;5875;35.940;126.892;2022-07-25T12:57:24;27.20;99.90
11639;DHT22;5875;35.940;126.892;2022-07-25T12:59:51;27.20;99.90
11639;DHT22;5875;35.940;126.892;2022-07-25T13:02:18;27.30;99.90
11639;DHT22;5875;35.940;126.892;2022-07-25T13:04:45;27.20;99.90
11639;DHT22;5875;35.940;126.892;2022-07-25T13:07:14;27.20;99.90
11639;DHT22;5875;35.940;126.892;2022-07-25T13:09:41;27.10;99.90
11639;DHT22;5875;35.940;126.892;2022-07-25T13:12:08;27.10;99.90
11639;DHT22;5875;35.940;126.892;2022-07-25T13:14:36;27.10;99.90
11639;DHT22;5875;35.940;126.892;2022-07-25T13:17:04;27.10;99.90
11639;DHT22;5875;35.940;126.892;2022-07-25T13:19:31;27.10;99.90
11639;DHT22;5875;35.940;126.892;2022-07-25T13:21:58;27.10;99.90
11639;DHT22;5875;35.940;126.892;2022-07-25T13:24:25;27.10;99.90
11639;DHT22;5875;35.940;126.892;2022-07-25T13:26:52;27.10;99.90
11639;DHT22;5875;35.940;126.892;2022-07-25T13:29:19;27.00;99.90
11639;DHT22;5875;35.940;126.892;2022-07-25T13:31:46;27.00;99.90
11639;DHT22;5875;35.940;126.892;2022-07-25T13:34:13;26.90;99.90
11639;DHT22;5875;35.940;126.892;2022-07-25T13:36:40;26.80;99.90
11639;DHT22;5875;35.940;126.892;2022-07-25T13:39:07;26.80;99.90
11639;DHT22;5875;35.940;126.892;2022-07-25T13:41:34;26.90;99.90
11639;DHT22;5875;35.940;126.892;2022-07-25T13:44:01;26.90;99.90
11639;DHT22;5875;35.940;126.892;2022-07-25T13:46:29;26.80;99.90
11639;DHT22;5875;35.940;126.892;2022-07-25T13:48:57;26.60;99.90
11639;DHT22;5875;35.940;126.892;2022-07-25T13:51:24;26.40;99.90
11639;DHT22;5875;35.940;126.892;2022-07-25T13:53:51;26.50;99.90
11639;DHT22;5875;35.940;126.892;2022-07-25T13:56:18;26.40;99.90
11639;DHT22;5875;35.940;126.892;2022-07-25T13:58:45;26.50;99.90
11639;DHT22;5875;35.940;126.892;2022-07-25T14:01:12;26.60;99.90
11639;DHT22;5875;35.940;126.892;2022-07-25T14:03:39;26.60;99.90
11639;DHT22;5875;35.940;126.892;2022-07-25T14:06:09;26.50;99.90
11639;DHT22;5875;35.940;126.892;2022-07-25T14:08:39;26.40;99.90
11639;DHT22;5875;35.940;126.892;2022-07-25T14:11:07;26.40;99.90
11639;DHT22;5875;35.940;126.892;2022-07-25T14:13:35;26.20;99.90
11639;DHT22;5875;35.940;126.892;2022-07-25T14:16:02;26.10;99.90
11639;DHT22;5875;35.940;126.892;2022-07-25T14:18:30;26.00;99.90
11639;DHT22;5875;35.940;126.892;2022-07-25T14:20:58;26.00;99.90
11639;DHT22;5875;35.940;126.892;2022-07-25T14:23:25;26.00;99.90
11639;DHT22;5875;35.940;126.892;2022-07-25T14:25:52;25.90;99.90
11639;DHT22;5875;35.940;126.892;2022-07-25T14:28:19;25.90;99.90
11639;DHT22;5875;35.940;126.892;2022-07-25T14:30:47;25.90;99.90
11639;DHT22;5875;35.940;126.892;2022-07-25T14:33:14;25.90;99.90
11639;DHT22;5875;35.940;126.892;2022-07-25T14:35:41;25.80;99.90
11639;DHT22;5875;35.940;126.892;2022-07-25T14:38:08;25.70;99.90
11639;DHT22;5875;35.940;126.892;2022-07-25T14:40:35;25.70;99.90
11639;DHT22;5875;35.940;126.892;2022-07-25T14:43:02;25.60;99.90
11639;DHT22;5875;35.940;126.892;2022-07-25T14:45:30;25.60;99.90
11639;DHT22;5875;35.940;126.892;2022-07-25T14:47:57;25.70;99.90
11639;DHT22;5875;35.940;126.892;2022-07-25T14:50:24;25.70;99.90
11639;DHT22;5875;35.940;126.892;2022-07-25T14:52:53;25.80;99.90
11639;DHT22;5875;35.940;126.892;2022-07-25T14:55:20;25.80;99.90
11639;DHT22;5875;35.940;126.892;2022-07-25T14:57:47;25.80;99.90
11639;DHT22;5875;35.940;126.892;2022-07-25T15:00:15;25.70;99.90
11639;DHT22;5875;35.940;126.892;2022-07-25T15:02:42;25.70;99.90
11639;DHT22;5875;35.940;126.892;2022-07-25T15:05:09;25.60;99.90
11639;DHT22;5875;35.940;126.892;2022-07-25T15:07:37;25.50;99.90
11639;DHT22;5875;35.940;126.892;2022-07-25T15:10:04;25.60;99.90
11639;DHT22;5875;35.940;126.892;2022-07-25T15:12:32;25.70;99.90
11639;DHT22;5875;35.940;126.892;2022-07-25T15:14:59;25.60;99.90
11639;DHT22;5875;35.940;126.892;2022-07-25T15:17:26;25.60;99.90
11639;DHT22;5875;35.940;126.892;2022-07-25T15:19:53;25.70;99.90
11639;DHT22;5875;35.940;126.892;2022-07-25T15:22:20;25.60;99.90
11639;DHT22;5875;35.940;126.892;2022-07-25T15:24:47;25.60;99.90
11639;DHT22;5875;35.940;126.892;2022-07-25T15:27:14;25.50;99.90
11639;DHT22;5875;35.940;126.892;2022-07-25T15:29:42;25.50;99.90